sensor_id;sensor_type;location;lat;lon;timestamp;P1;durP1;ratioP1;P2;durP2;ratioP2
66012;SDS011;52783;50.502;8.190;2023-04-25T00:02:09;16.98;;;7.18;;
66012;SDS011;52783;50.502;8.190;2023-04-25T00:04:35;9.80;;;6.78;;
66012;SDS011;52783;50.502;8.190;2023-04-25T00:07:02;12.20;;;6.93;;
66012;SDS011;52783;50.502;8.190;2023-04-25T00:09:28;13.90;;;7.63;;
66012;SDS011;52783;50.502;8.190;2023-04-25T00:11:54;16.42;;;8.77;;
66012;SDS011;52783;50.502;8.190;2023-04-25T00:14:20;11.02;;;7.10;;
66012;SDS011;52783;50.502;8.190;2023-04-25T00:16:45;16.25;;;8.13;;
66012;SDS011;52783;50.502;8.190;2023-04-25T00:19:11;12.80;;;7.70;;
66012;SDS011;52783;50.502;8.190;2023-04-25T00:21:37;12.82;;;7.35;;
66012;SDS011;52783;50.502;8.190;2023-04-25T00:24:05;12.48;;;7.28;;
66012;SDS011;52783;50.502;8.190;2023-04-25T00:26:31;12.20;;;7.90;;
66012;SDS011;52783;50.502;8.190;2023-04-25T00:28:58;14.50;;;7.88;;
66012;SDS011;52783;50.502;8.190;2023-04-25T00:31:24;12.68;;;7.03;;
66012;SDS011;52783;50.502;8.190;2023-04-25T00:33:49;13.45;;;6.75;;
66012;SDS011;52783;50.502;8.190;2023-04-25T00:36:15;11.98;;;7.28;;
66012;SDS011;52783;50.502;8.190;2023-04-25T00:38:42;14.43;;;7.57;;
66012;SDS011;52783;50.502;8.190;2023-04-25T00:41:07;9.18;;;6.18;;
66012;SDS011;52783;50.502;8.190;2023-04-25T00:43:33;14.43;;;6.80;;
66012;SDS011;52783;50.502;8.190;2023-04-25T00:46:01;11.05;;;6.47;;
66012;SDS011;52783;50.502;8.190;2023-04-25T00:48:26;11.82;;;7.13;;
66012;SDS011;52783;50.502;8.190;2023-04-25T00:50:53;11.00;;;6.28;;
66012;SDS011;52783;50.502;8.190;2023-04-25T00:53:20;12.38;;;6.18;;
66012;SDS011;52783;50.502;8.190;2023-04-25T00:55:47;13.68;;;5.78;;
66012;SDS011;52783;50.502;8.190;2023-04-25T00:58:15;12.80;;;6.55;;
66012;SDS011;52783;50.502;8.190;2023-04-25T01:00:41;13.57;;;6.22;;
66012;SDS011;52783;50.502;8.190;2023-04-25T01:03:08;13.20;;;6.07;;
66012;SDS011;52783;50.502;8.190;2023-04-25T01:05:35;9.57;;;6.35;;
66012;SDS011;52783;50.502;8.190;2023-04-25T01:08:00;14.85;;;6.13;;
66012;SDS011;52783;50.502;8.190;2023-04-25T01:10:26;13.68;;;6.45;;
66012;SDS011;52783;50.502;8.190;2023-04-25T01:12:52;13.15;;;6.03;;
66012;SDS011;52783;50.502;8.190;2023-04-25T01:15:18;17.50;;;6.20;;
66012;SDS011;52783;50.502;8.190;2023-04-25T01:17:44;9.18;;;5.95;;
66012;SDS011;52783;50.502;8.190;2023-04-25T01:20:09;18.63;;;6.82;;
66012;SDS011;52783;50.502;8.190;2023-04-25T01:22:36;11.85;;;5.80;;
66012;SDS011;52783;50.502;8.190;2023-04-25T01:25:03;13.45;;;6.05;;
66012;SDS011;52783;50.502;8.190;2023-04-25T01:27:29;12.75;;;5.93;;
66012;SDS011;52783;50.502;8.190;2023-04-25T01:29:55;14.85;;;6.47;;
66012;SDS011;52783;50.502;8.190;2023-04-25T01:32:22;13.55;;;6.63;;
66012;SDS011;52783;50.502;8.190;2023-04-25T01:34:48;12.35;;;7.30;;
66012;SDS011;52783;50.502;8.190;2023-04-25T01:37:14;10.43;;;5.50;;
66012;SDS011;52783;50.502;8.190;2023-04-25T01:39:41;18.90;;;6.40;;
66012;SDS011;52783;50.502;8.190;2023-04-25T01:42:06;14.70;;;5.88;;
66012;SDS011;52783;50.502;8.190;2023-04-25T01:44:32;14.13;;;6.53;;
66012;SDS011;52783;50.502;8.190;2023-04-25T01:46:58;15.38;;;7.20;;
66012;SDS011;52783;50.502;8.190;2023-04-25T01:49:23;15.98;;;6.40;;
66012;SDS011;52783;50.502;8.190;2023-04-25T01:51:49;15.60;;;6.35;;
66012;SDS011;52783;50.502;8.190;2023-04-25T01:54:15;10.27;;;6.05;;
66012;SDS011;52783;50.502;8.190;2023-04-25T01:56:40;15.63;;;5.38;;
66012;SDS011;52783;50.502;8.190;2023-04-25T01:59:06;14.43;;;6.32;;
66012;SDS011;52783;50.502;8.190;2023-04-25T02:01:32;14.35;;;6.22;;
66012;SDS011;52783;50.502;8.190;2023-04-25T02:03:57;12.10;;;5.78;;
66012;SDS011;52783;50.502;8.190;2023-04-25T02:06:23;15.13;;;6.40;;
66012;SDS011;52783;50.502;8.190;2023-04-25T02:08:49;14.20;;;5.93;;
66012;SDS011;52783;50.502;8.190;2023-04-25T02:11:15;12.65;;;6.05;;
66012;SDS011;52783;50.502;8.190;2023-04-25T02:13:40;13.40;;;6.25;;
66012;SDS011;52783;50.502;8.190;2023-04-25T02:16:06;12.15;;;6.00;;
66012;SDS011;52783;50.502;8.190;2023-04-25T02:18:31;16.05;;;5.80;;
66012;SDS011;52783;50.502;8.190;2023-04-25T02:20:58;14.48;;;6.28;;
66012;SDS011;52783;50.502;8.190;2023-04-25T02:23:26;8.55;;;5.20;;
66012;SDS011;52783;50.502;8.190;2023-04-25T02:25:51;11.88;;;5.95;;
66012;SDS011;52783;50.502;8.190;2023-04-25T02:28:17;15.48;;;5.78;;
66012;SDS011;52783;50.502;8.190;2023-04-25T02:30:43;11.18;;;6.40;;
66012;SDS011;52783;50.502;8.190;2023-04-25T02:33:08;16.35;;;6.65;;
66012;SDS011;52783;50.502;8.190;2023-04-25T02:35:34;12.90;;;6.55;;
66012;SDS011;52783;50.502;8.190;2023-04-25T02:38:00;12.73;;;5.70;;
66012;SDS011;52783;50.502;8.190;2023-04-25T02:40:25;13.18;;;6.18;;
66012;SDS011;52783;50.502;8.190;2023-04-25T02:42:51;10.50;;;6.57;;
66012;SDS011;52783;50.502;8.190;2023-04-25T02:45:17;17.58;;;6.60;;
66012;SDS011;52783;50.502;8.190;2023-04-25T02:47:42;11.77;;;5.85;;
66012;SDS011;52783;50.502;8.190;2023-04-25T02:50:08;11.98;;;5.95;;
66012;SDS011;52783;50.502;8.190;2023-04-25T02:52:34;11.85;;;6.85;;
66012;SDS011;52783;50.502;8.190;2023-04-25T02:55:00;13.15;;;6.05;;
66012;SDS011;52783;50.502;8.190;2023-04-25T02:57:25;17.10;;;7.13;;
66012;SDS011;52783;50.502;8.190;2023-04-25T02:59:51;16.25;;;7.57;;
66012;SDS011;52783;50.502;8.190;2023-04-25T03:02:16;16.63;;;7.18;;
66012;SDS011;52783;50.502;8.190;2023-04-25T03:04:42;11.98;;;6.80;;
66012;SDS011;52783;50.502;8.190;2023-04-25T03:07:07;16.80;;;6.75;;
66012;SDS011;52783;50.502;8.190;2023-04-25T03:09:33;13.75;;;7.07;;
66012;SDS011;52783;50.502;8.190;2023-04-25T03:11:59;16.55;;;7.30;;
66012;SDS011;52783;50.502;8.190;2023-04-25T03:14:26;21.20;;;7.50;;
66012;SDS011;52783;50.502;8.190;2023-04-25T03:16:51;17.48;;;6.65;;
66012;SDS011;52783;50.502;8.190;2023-04-25T03:19:17;14.38;;;6.85;;
66012;SDS011;52783;50.502;8.190;2023-04-25T03:21:43;15.32;;;6.88;;
66012;SDS011;52783;50.502;8.190;2023-04-25T03:24:09;16.27;;;7.70;;
66012;SDS011;52783;50.502;8.190;2023-04-25T03:27:07;14.68;;;6.40;;
66012;SDS011;52783;50.502;8.190;2023-04-25T03:29:33;11.70;;;6.13;;
66012;SDS011;52783;50.502;8.190;2023-04-25T03:31:59;18.58;;;6.25;;
66012;SDS011;52783;50.502;8.190;2023-04-25T03:34:25;17.70;;;6.88;;
66012;SDS011;52783;50.502;8.190;2023-04-25T03:36:51;10.73;;;6.13;;
66012;SDS011;52783;50.502;8.190;2023-04-25T03:39:16;15.80;;;6.57;;
66012;SDS011;52783;50.502;8.190;2023-04-25T03:41:42;22.95;;;6.53;;
66012;SDS011;52783;50.502;8.190;2023-04-25T03:44:07;12.15;;;5.65;;
66012;SDS011;52783;50.502;8.190;2023-04-25T03:46:33;12.40;;;6.53;;
66012;SDS011;52783;50.502;8.190;2023-04-25T03:48:58;16.23;;;6.93;;
66012;SDS011;52783;50.502;8.190;2023-04-25T03:51:25;19.42;;;6.38;;
66012;SDS011;52783;50.502;8.190;2023-04-25T03:53:51;17.40;;;5.85;;
66012;SDS011;52783;50.502;8.190;2023-04-25T03:56:16;11.15;;;5.43;;
66012;SDS011;52783;50.502;8.190;2023-04-25T03:58:42;13.32;;;6.45;;
66012;SDS011;52783;50.502;8.190;2023-04-25T04:01:07;14.50;;;5.30;;
66012;SDS011;52783;50.502;8.190;2023-04-25T04:03:33;13.30;;;6.07;;
66012;SDS011;52783;50.502;8.190;2023-04-25T04:06:03;18.48;;;6.97;;
66012;SDS011;52783;50.502;8.190;2023-04-25T04:08:30;11.82;;;5.55;;
66012;SDS011;52783;50.502;8.190;2023-04-25T04:10:57;11.45;;;5.25;;
66012;SDS011;52783;50.502;8.190;2023-04-25T04:13:23;14.25;;;5.75;;
66012;SDS011;52783;50.502;8.190;2023-04-25T04:15:52;18.70;;;5.35;;
66012;SDS011;52783;50.502;8.190;2023-04-25T04:18:18;13.32;;;4.90;;
66012;SDS011;52783;50.502;8.190;2023-04-25T04:20:44;13.07;;;4.82;;
66012;SDS011;52783;50.502;8.190;2023-04-25T04:23:09;9.20;;;5.00;;
66012;SDS011;52783;50.502;8.190;2023-04-25T04:25:35;9.88;;;4.25;;
66012;SDS011;52783;50.502;8.190;2023-04-25T04:28:01;14.75;;;4.57;;
66012;SDS011;52783;50.502;8.190;2023-04-25T04:30:27;14.63;;;4.80;;
66012;SDS011;52783;50.502;8.190;2023-04-25T04:32:54;18.80;;;5.80;;
66012;SDS011;52783;50.502;8.190;2023-04-25T04:35:21;13.00;;;5.18;;
66012;SDS011;52783;50.502;8.190;2023-04-25T04:37:49;12.73;;;5.32;;
66012;SDS011;52783;50.502;8.190;2023-04-25T04:40:15;16.98;;;5.28;;
66012;SDS011;52783;50.502;8.190;2023-04-25T04:42:42;13.10;;;5.13;;
66012;SDS011;52783;50.502;8.190;2023-04-25T04:45:10;14.50;;;5.43;;
66012;SDS011;52783;50.502;8.190;2023-04-25T04:47:37;9.90;;;4.95;;
66012;SDS011;52783;50.502;8.190;2023-04-25T04:50:04;16.83;;;4.95;;
66012;SDS011;52783;50.502;8.190;2023-04-25T04:52:36;19.55;;;5.63;;
66012;SDS011;52783;50.502;8.190;2023-04-25T04:55:02;13.95;;;5.55;;
66012;SDS011;52783;50.502;8.190;2023-04-25T04:57:29;12.13;;;4.78;;
66012;SDS011;52783;50.502;8.190;2023-04-25T04:59:56;12.60;;;4.90;;
66012;SDS011;52783;50.502;8.190;2023-04-25T05:02:22;11.43;;;4.35;;
66012;SDS011;52783;50.502;8.190;2023-04-25T05:04:47;22.10;;;5.40;;
66012;SDS011;52783;50.502;8.190;2023-04-25T05:07:13;10.43;;;4.85;;
66012;SDS011;52783;50.502;8.190;2023-04-25T05:09:39;16.17;;;5.07;;
66012;SDS011;52783;50.502;8.190;2023-04-25T05:12:04;8.93;;;4.18;;
66012;SDS011;52783;50.502;8.190;2023-04-25T05:14:30;10.35;;;4.43;;
66012;SDS011;52783;50.502;8.190;2023-04-25T05:16:56;13.27;;;4.65;;
66012;SDS011;52783;50.502;8.190;2023-04-25T05:19:21;10.57;;;4.18;;
66012;SDS011;52783;50.502;8.190;2023-04-25T05:21:48;10.07;;;4.10;;
66012;SDS011;52783;50.502;8.190;2023-04-25T05:24:14;10.70;;;4.50;;
66012;SDS011;52783;50.502;8.190;2023-04-25T05:26:39;8.82;;;3.90;;
66012;SDS011;52783;50.502;8.190;2023-04-25T05:29:05;13.77;;;4.70;;
66012;SDS011;52783;50.502;8.190;2023-04-25T05:31:31;12.10;;;4.30;;
66012;SDS011;52783;50.502;8.190;2023-04-25T05:33:57;10.00;;;4.20;;
66012;SDS011;52783;50.502;8.190;2023-04-25T05:36:23;9.77;;;4.18;;
66012;SDS011;52783;50.502;8.190;2023-04-25T05:38:48;8.88;;;4.55;;
66012;SDS011;52783;50.502;8.190;2023-04-25T05:41:14;10.68;;;4.97;;
66012;SDS011;52783;50.502;8.190;2023-04-25T05:43:39;7.65;;;4.28;;
66012;SDS011;52783;50.502;8.190;2023-04-25T05:46:10;12.77;;;4.70;;
66012;SDS011;52783;50.502;8.190;2023-04-25T05:48:36;10.82;;;4.68;;
66012;SDS011;52783;50.502;8.190;2023-04-25T05:51:01;12.27;;;5.13;;
66012;SDS011;52783;50.502;8.190;2023-04-25T05:53:27;14.18;;;4.88;;
66012;SDS011;52783;50.502;8.190;2023-04-25T05:55:53;8.55;;;5.13;;
66012;SDS011;52783;50.502;8.190;2023-04-25T05:58:18;11.60;;;5.60;;
66012;SDS011;52783;50.502;8.190;2023-04-25T06:00:44;11.60;;;4.97;;
66012;SDS011;52783;50.502;8.190;2023-04-25T06:03:11;8.55;;;4.30;;
66012;SDS011;52783;50.502;8.190;2023-04-25T06:05:39;10.10;;;4.60;;
66012;SDS011;52783;50.502;8.190;2023-04-25T06:08:06;11.35;;;4.68;;
66012;SDS011;52783;50.502;8.190;2023-04-25T06:10:31;10.68;;;4.88;;
66012;SDS011;52783;50.502;8.190;2023-04-25T06:12:57;11.32;;;4.82;;
66012;SDS011;52783;50.502;8.190;2023-04-25T06:15:22;8.23;;;4.38;;
66012;SDS011;52783;50.502;8.190;2023-04-25T06:17:48;7.47;;;4.85;;
66012;SDS011;52783;50.502;8.190;2023-04-25T06:20:14;11.30;;;4.43;;
66012;SDS011;52783;50.502;8.190;2023-04-25T06:22:39;7.03;;;4.70;;
66012;SDS011;52783;50.502;8.190;2023-04-25T06:25:05;14.43;;;5.45;;
66012;SDS011;52783;50.502;8.190;2023-04-25T06:27:32;9.75;;;5.50;;
66012;SDS011;52783;50.502;8.190;2023-04-25T06:29:58;10.07;;;5.47;;
66012;SDS011;52783;50.502;8.190;2023-04-25T06:32:23;12.65;;;5.50;;
66012;SDS011;52783;50.502;8.190;2023-04-25T06:34:50;19.98;;;6.03;;
66012;SDS011;52783;50.502;8.190;2023-04-25T06:37:15;10.88;;;6.25;;
66012;SDS011;52783;50.502;8.190;2023-04-25T06:39:41;12.38;;;5.55;;
66012;SDS011;52783;50.502;8.190;2023-04-25T06:42:06;10.75;;;5.20;;
66012;SDS011;52783;50.502;8.190;2023-04-25T06:44:32;11.57;;;5.43;;
66012;SDS011;52783;50.502;8.190;2023-04-25T06:46:58;11.10;;;6.28;;
66012;SDS011;52783;50.502;8.190;2023-04-25T06:49:23;11.07;;;5.88;;
66012;SDS011;52783;50.502;8.190;2023-04-25T06:51:49;10.25;;;5.55;;
66012;SDS011;52783;50.502;8.190;2023-04-25T06:54:15;11.57;;;6.35;;
66012;SDS011;52783;50.502;8.190;2023-04-25T06:56:40;15.05;;;6.28;;
66012;SDS011;52783;50.502;8.190;2023-04-25T06:59:06;9.82;;;5.50;;
66012;SDS011;52783;50.502;8.190;2023-04-25T07:01:32;13.27;;;6.35;;
66012;SDS011;52783;50.502;8.190;2023-04-25T07:03:57;12.00;;;6.22;;
66012;SDS011;52783;50.502;8.190;2023-04-25T07:06:23;17.17;;;6.18;;
66012;SDS011;52783;50.502;8.190;2023-04-25T07:08:50;12.38;;;6.55;;
66012;SDS011;52783;50.502;8.190;2023-04-25T07:11:16;14.45;;;6.00;;
66012;SDS011;52783;50.502;8.190;2023-04-25T07:13:42;15.93;;;6.43;;
66012;SDS011;52783;50.502;8.190;2023-04-25T07:16:07;17.83;;;5.85;;
66012;SDS011;52783;50.502;8.190;2023-04-25T07:18:33;7.53;;;5.07;;
66012;SDS011;52783;50.502;8.190;2023-04-25T07:20:59;13.68;;;5.35;;
66012;SDS011;52783;50.502;8.190;2023-04-25T07:23:24;10.60;;;4.75;;
66012;SDS011;52783;50.502;8.190;2023-04-25T07:25:50;11.13;;;5.43;;
66012;SDS011;52783;50.502;8.190;2023-04-25T07:28:15;13.00;;;4.90;;
66012;SDS011;52783;50.502;8.190;2023-04-25T07:30:41;9.52;;;4.78;;
66012;SDS011;52783;50.502;8.190;2023-04-25T07:33:06;10.15;;;4.28;;
66012;SDS011;52783;50.502;8.190;2023-04-25T07:35:32;7.45;;;4.07;;
66012;SDS011;52783;50.502;8.190;2023-04-25T07:37:58;10.60;;;5.15;;
66012;SDS011;52783;50.502;8.190;2023-04-25T07:40:24;9.80;;;4.80;;
66012;SDS011;52783;50.502;8.190;2023-04-25T07:42:49;7.28;;;4.50;;
66012;SDS011;52783;50.502;8.190;2023-04-25T07:45:15;10.23;;;5.25;;
66012;SDS011;52783;50.502;8.190;2023-04-25T07:47:41;6.15;;;4.43;;
66012;SDS011;52783;50.502;8.190;2023-04-25T07:50:06;5.85;;;4.40;;
66012;SDS011;52783;50.502;8.190;2023-04-25T07:52:32;9.73;;;4.65;;
66012;SDS011;52783;50.502;8.190;2023-04-25T07:54:58;11.55;;;4.53;;
66012;SDS011;52783;50.502;8.190;2023-04-25T07:57:23;10.73;;;5.03;;
66012;SDS011;52783;50.502;8.190;2023-04-25T07:59:49;12.60;;;5.45;;
66012;SDS011;52783;50.502;8.190;2023-04-25T08:02:15;9.88;;;4.80;;
66012;SDS011;52783;50.502;8.190;2023-04-25T08:04:40;12.30;;;4.38;;
66012;SDS011;52783;50.502;8.190;2023-04-25T08:07:06;14.15;;;5.07;;
66012;SDS011;52783;50.502;8.190;2023-04-25T08:09:31;8.10;;;4.68;;
66012;SDS011;52783;50.502;8.190;2023-04-25T08:12:00;10.25;;;4.35;;
66012;SDS011;52783;50.502;8.190;2023-04-25T08:14:27;5.15;;;3.85;;
66012;SDS011;52783;50.502;8.190;2023-04-25T08:16:53;14.63;;;4.65;;
66012;SDS011;52783;50.502;8.190;2023-04-25T08:19:19;7.72;;;3.90;;
66012;SDS011;52783;50.502;8.190;2023-04-25T08:21:45;11.45;;;3.97;;
66012;SDS011;52783;50.502;8.190;2023-04-25T08:24:10;13.70;;;5.05;;
66012;SDS011;52783;50.502;8.190;2023-04-25T08:26:36;12.52;;;4.78;;
66012;SDS011;52783;50.502;8.190;2023-04-25T08:29:03;10.25;;;4.28;;
66012;SDS011;52783;50.502;8.190;2023-04-25T08:31:29;12.40;;;4.10;;
66012;SDS011;52783;50.502;8.190;2023-04-25T08:33:55;9.63;;;3.67;;
66012;SDS011;52783;50.502;8.190;2023-04-25T08:36:20;6.15;;;3.95;;
66012;SDS011;52783;50.502;8.190;2023-04-25T08:38:46;10.18;;;4.28;;
66012;SDS011;52783;50.502;8.190;2023-04-25T08:41:12;11.93;;;3.95;;
66012;SDS011;52783;50.502;8.190;2023-04-25T08:43:38;12.15;;;4.00;;
66012;SDS011;52783;50.502;8.190;2023-04-25T08:46:07;7.40;;;3.40;;
66012;SDS011;52783;50.502;8.190;2023-04-25T08:48:33;7.45;;;2.88;;
66012;SDS011;52783;50.502;8.190;2023-04-25T08:51:00;14.68;;;3.58;;
66012;SDS011;52783;50.502;8.190;2023-04-25T08:53:31;8.32;;;3.17;;
66012;SDS011;52783;50.502;8.190;2023-04-25T08:55:59;10.20;;;4.55;;
66012;SDS011;52783;50.502;8.190;2023-04-25T08:58:29;6.68;;;3.33;;
66012;SDS011;52783;50.502;8.190;2023-04-25T09:00:55;6.22;;;3.13;;
66012;SDS011;52783;50.502;8.190;2023-04-25T09:03:21;4.70;;;2.53;;
66012;SDS011;52783;50.502;8.190;2023-04-25T09:05:46;7.22;;;3.20;;
66012;SDS011;52783;50.502;8.190;2023-04-25T09:08:12;8.68;;;2.80;;
66012;SDS011;52783;50.502;8.190;2023-04-25T09:10:38;4.97;;;2.70;;
66012;SDS011;52783;50.502;8.190;2023-04-25T09:15:31;6.53;;;3.10;;
66012;SDS011;52783;50.502;8.190;2023-04-25T09:17:58;7.38;;;3.17;;
66012;SDS011;52783;50.502;8.190;2023-04-25T09:20:24;8.00;;;2.80;;
66012;SDS011;52783;50.502;8.190;2023-04-25T09:22:50;6.55;;;2.63;;
66012;SDS011;52783;50.502;8.190;2023-04-25T09:25:27;5.13;;;2.88;;
66012;SDS011;52783;50.502;8.190;2023-04-25T09:28:03;9.57;;;2.88;;
66012;SDS011;52783;50.502;8.190;2023-04-25T09:30:29;12.93;;;3.90;;
66012;SDS011;52783;50.502;8.190;2023-04-25T09:32:57;4.05;;;2.50;;
66012;SDS011;52783;50.502;8.190;2023-04-25T09:35:26;5.80;;;2.60;;
66012;SDS011;52783;50.502;8.190;2023-04-25T09:37:52;5.45;;;2.42;;
66012;SDS011;52783;50.502;8.190;2023-04-25T09:40:18;9.25;;;2.88;;
66012;SDS011;52783;50.502;8.190;2023-04-25T09:42:43;4.47;;;2.10;;
66012;SDS011;52783;50.502;8.190;2023-04-25T09:45:09;12.93;;;2.63;;
66012;SDS011;52783;50.502;8.190;2023-04-25T09:47:40;8.93;;;2.65;;
66012;SDS011;52783;50.502;8.190;2023-04-25T09:50:13;6.72;;;2.58;;
66012;SDS011;52783;50.502;8.190;2023-04-25T09:52:40;5.53;;;2.72;;
66012;SDS011;52783;50.502;8.190;2023-04-25T09:55:06;3.83;;;2.40;;
66012;SDS011;52783;50.502;8.190;2023-04-25T09:57:32;5.47;;;2.25;;
66012;SDS011;52783;50.502;8.190;2023-04-25T09:59:58;8.73;;;2.63;;
66012;SDS011;52783;50.502;8.190;2023-04-25T10:02:26;8.10;;;2.72;;
66012;SDS011;52783;50.502;8.190;2023-04-25T10:04:53;11.05;;;3.67;;
66012;SDS011;52783;50.502;8.190;2023-04-25T10:07:23;7.53;;;3.05;;
66012;SDS011;52783;50.502;8.190;2023-04-25T10:09:54;18.55;;;6.30;;
66012;SDS011;52783;50.502;8.190;2023-04-25T10:12:26;10.32;;;2.97;;
66012;SDS011;52783;50.502;8.190;2023-04-25T10:14:52;18.90;;;2.90;;
66012;SDS011;52783;50.502;8.190;2023-04-25T10:17:19;6.40;;;2.80;;
66012;SDS011;52783;50.502;8.190;2023-04-25T10:19:46;11.80;;;2.88;;
66012;SDS011;52783;50.502;8.190;2023-04-25T10:22:14;7.82;;;2.50;;
66012;SDS011;52783;50.502;8.190;2023-04-25T10:24:41;6.82;;;2.70;;
66012;SDS011;52783;50.502;8.190;2023-04-25T10:27:08;8.00;;;2.90;;
66012;SDS011;52783;50.502;8.190;2023-04-25T10:29:34;5.70;;;2.55;;
66012;SDS011;52783;50.502;8.190;2023-04-25T10:32:00;9.10;;;3.42;;
66012;SDS011;52783;50.502;8.190;2023-04-25T10:34:43;10.77;;;2.50;;
66012;SDS011;52783;50.502;8.190;2023-04-25T10:37:12;9.05;;;3.15;;
66012;SDS011;52783;50.502;8.190;2023-04-25T10:39:39;6.35;;;3.13;;
66012;SDS011;52783;50.502;8.190;2023-04-25T10:42:06;8.98;;;3.40;;
66012;SDS011;52783;50.502;8.190;2023-04-25T10:44:32;6.72;;;2.65;;
66012;SDS011;52783;50.502;8.190;2023-04-25T10:47:00;8.27;;;2.90;;
66012;SDS011;52783;50.502;8.190;2023-04-25T10:49:28;4.60;;;2.03;;
66012;SDS011;52783;50.502;8.190;2023-04-25T10:52:10;5.55;;;2.13;;
66012;SDS011;52783;50.502;8.190;2023-04-25T10:54:42;10.45;;;3.05;;
66012;SDS011;52783;50.502;8.190;2023-04-25T10:57:44;6.82;;;2.70;;
66012;SDS011;52783;50.502;8.190;2023-04-25T11:00:19;9.93;;;1.92;;
66012;SDS011;52783;50.502;8.190;2023-04-25T11:03:08;7.75;;;2.67;;
66012;SDS011;52783;50.502;8.190;2023-04-25T11:05:35;8.57;;;2.90;;
66012;SDS011;52783;50.502;8.190;2023-04-25T11:08:01;9.05;;;2.35;;
66012;SDS011;52783;50.502;8.190;2023-04-25T11:10:29;6.25;;;2.30;;
66012;SDS011;52783;50.502;8.190;2023-04-25T11:12:56;9.32;;;3.83;;
66012;SDS011;52783;50.502;8.190;2023-04-25T11:15:22;8.38;;;3.15;;
66012;SDS011;52783;50.502;8.190;2023-04-25T11:17:50;7.82;;;2.53;;
66012;SDS011;52783;50.502;8.190;2023-04-25T11:20:17;6.65;;;2.60;;
66012;SDS011;52783;50.502;8.190;2023-04-25T11:22:44;4.88;;;2.40;;
66012;SDS011;52783;50.502;8.190;2023-04-25T11:25:11;12.57;;;3.38;;
66012;SDS011;52783;50.502;8.190;2023-04-25T11:27:50;8.63;;;3.67;;
66012;SDS011;52783;50.502;8.190;2023-04-25T11:30:17;8.50;;;2.92;;
66012;SDS011;52783;50.502;8.190;2023-04-25T11:32:43;10.43;;;4.30;;
66012;SDS011;52783;50.502;8.190;2023-04-25T11:35:09;7.43;;;3.28;;
66012;SDS011;52783;50.502;8.190;2023-04-25T11:37:35;6.18;;;2.92;;
66012;SDS011;52783;50.502;8.190;2023-04-25T11:40:02;13.85;;;3.30;;
66012;SDS011;52783;50.502;8.190;2023-04-25T11:42:31;10.95;;;3.40;;
66012;SDS011;52783;50.502;8.190;2023-04-25T11:44:57;9.07;;;2.95;;
66012;SDS011;52783;50.502;8.190;2023-04-25T11:47:30;6.53;;;2.83;;
66012;SDS011;52783;50.502;8.190;2023-04-25T11:49:59;11.30;;;3.22;;
66012;SDS011;52783;50.502;8.190;2023-04-25T11:52:42;6.07;;;2.60;;
66012;SDS011;52783;50.502;8.190;2023-04-25T11:55:18;11.68;;;3.20;;
66012;SDS011;52783;50.502;8.190;2023-04-25T11:57:47;11.38;;;3.53;;
66012;SDS011;52783;50.502;8.190;2023-04-25T12:00:15;7.57;;;2.53;;
66012;SDS011;52783;50.502;8.190;2023-04-25T12:02:43;5.45;;;2.83;;
66012;SDS011;52783;50.502;8.190;2023-04-25T12:05:11;8.10;;;2.78;;
66012;SDS011;52783;50.502;8.190;2023-04-25T12:07:38;10.05;;;2.88;;
66012;SDS011;52783;50.502;8.190;2023-04-25T12:10:09;7.85;;;3.10;;
66012;SDS011;52783;50.502;8.190;2023-04-25T12:12:36;3.40;;;2.40;;
66012;SDS011;52783;50.502;8.190;2023-04-25T12:17:54;12.48;;;5.13;;
66012;SDS011;52783;50.502;8.190;2023-04-25T12:20:21;10.50;;;2.80;;
66012;SDS011;52783;50.502;8.190;2023-04-25T12:22:49;10.90;;;3.05;;
66012;SDS011;52783;50.502;8.190;2023-04-25T12:28:10;7.70;;;2.40;;
66012;SDS011;52783;50.502;8.190;2023-04-25T12:33:23;7.85;;;3.38;;
66012;SDS011;52783;50.502;8.190;2023-04-25T12:35:49;16.13;;;3.80;;
66012;SDS011;52783;50.502;8.190;2023-04-25T12:38:27;8.25;;;3.15;;
66012;SDS011;52783;50.502;8.190;2023-04-25T12:40:55;4.80;;;2.40;;
66012;SDS011;52783;50.502;8.190;2023-04-25T12:43:21;16.35;;;5.00;;
66012;SDS011;52783;50.502;8.190;2023-04-25T12:45:48;10.98;;;4.00;;
66012;SDS011;52783;50.502;8.190;2023-04-25T12:48:16;7.95;;;3.30;;
66012;SDS011;52783;50.502;8.190;2023-04-25T12:50:42;12.05;;;3.00;;
66012;SDS011;52783;50.502;8.190;2023-04-25T12:53:08;5.50;;;2.55;;
66012;SDS011;52783;50.502;8.190;2023-04-25T12:55:34;7.85;;;2.80;;
66012;SDS011;52783;50.502;8.190;2023-04-25T12:58:00;6.88;;;2.55;;
66012;SDS011;52783;50.502;8.190;2023-04-25T13:00:25;11.13;;;5.97;;
66012;SDS011;52783;50.502;8.190;2023-04-25T13:02:51;9.98;;;3.33;;
66012;SDS011;52783;50.502;8.190;2023-04-25T13:05:17;8.38;;;2.90;;
66012;SDS011;52783;50.502;8.190;2023-04-25T13:07:42;5.82;;;2.42;;
66012;SDS011;52783;50.502;8.190;2023-04-25T13:10:08;7.80;;;3.00;;
66012;SDS011;52783;50.502;8.190;2023-04-25T13:12:34;6.07;;;3.35;;
66012;SDS011;52783;50.502;8.190;2023-04-25T13:15:00;8.82;;;3.00;;
66012;SDS011;52783;50.502;8.190;2023-04-25T13:17:25;6.45;;;2.40;;
66012;SDS011;52783;50.502;8.190;2023-04-25T13:19:51;10.68;;;3.88;;
66012;SDS011;52783;50.502;8.190;2023-04-25T13:22:17;10.25;;;3.88;;
66012;SDS011;52783;50.502;8.190;2023-04-25T13:24:45;8.93;;;3.35;;
66012;SDS011;52783;50.502;8.190;2023-04-25T13:27:11;5.85;;;2.40;;
66012;SDS011;52783;50.502;8.190;2023-04-25T13:29:36;5.25;;;2.70;;
66012;SDS011;52783;50.502;8.190;2023-04-25T13:32:03;7.32;;;2.90;;
66012;SDS011;52783;50.502;8.190;2023-04-25T13:34:29;7.50;;;3.45;;
66012;SDS011;52783;50.502;8.190;2023-04-25T13:36:55;9.30;;;2.70;;
66012;SDS011;52783;50.502;8.190;2023-04-25T13:39:21;8.63;;;2.30;;
66012;SDS011;52783;50.502;8.190;2023-04-25T13:41:46;7.00;;;2.50;;
66012;SDS011;52783;50.502;8.190;2023-04-25T13:44:12;6.30;;;2.47;;
66012;SDS011;52783;50.502;8.190;2023-04-25T13:46:38;5.78;;;2.28;;
66012;SDS011;52783;50.502;8.190;2023-04-25T13:49:04;7.22;;;2.20;;
66012;SDS011;52783;50.502;8.190;2023-04-25T13:51:30;10.32;;;3.80;;
66012;SDS011;52783;50.502;8.190;2023-04-25T13:53:56;9.15;;;2.30;;
66012;SDS011;52783;50.502;8.190;2023-04-25T13:56:21;10.60;;;2.50;;
66012;SDS011;52783;50.502;8.190;2023-04-25T13:58:49;8.10;;;2.85;;
66012;SDS011;52783;50.502;8.190;2023-04-25T14:01:16;6.43;;;2.55;;
66012;SDS011;52783;50.502;8.190;2023-04-25T14:03:42;9.40;;;2.63;;
66012;SDS011;52783;50.502;8.190;2023-04-25T14:06:07;8.80;;;2.35;;
66012;SDS011;52783;50.502;8.190;2023-04-25T14:08:33;7.05;;;2.17;;
66012;SDS011;52783;50.502;8.190;2023-04-25T14:10:59;6.40;;;2.30;;
66012;SDS011;52783;50.502;8.190;2023-04-25T14:13:25;6.80;;;2.78;;
66012;SDS011;52783;50.502;8.190;2023-04-25T14:15:51;9.50;;;2.40;;
66012;SDS011;52783;50.502;8.190;2023-04-25T14:18:17;7.32;;;2.90;;
66012;SDS011;52783;50.502;8.190;2023-04-25T14:20:42;7.45;;;2.65;;
66012;SDS011;52783;50.502;8.190;2023-04-25T14:23:08;11.00;;;2.60;;
66012;SDS011;52783;50.502;8.190;2023-04-25T14:25:33;6.90;;;2.30;;
66012;SDS011;52783;50.502;8.190;2023-04-25T14:28:01;5.55;;;2.10;;
66012;SDS011;52783;50.502;8.190;2023-04-25T14:30:26;5.57;;;2.33;;
66012;SDS011;52783;50.502;8.190;2023-04-25T14:32:52;9.55;;;2.50;;
66012;SDS011;52783;50.502;8.190;2023-04-25T14:35:18;7.32;;;2.50;;
66012;SDS011;52783;50.502;8.190;2023-04-25T14:37:44;8.07;;;2.50;;
66012;SDS011;52783;50.502;8.190;2023-04-25T14:40:09;5.43;;;2.50;;
66012;SDS011;52783;50.502;8.190;2023-04-25T14:42:36;4.75;;;2.22;;
66012;SDS011;52783;50.502;8.190;2023-04-25T14:45:03;6.38;;;2.65;;
66012;SDS011;52783;50.502;8.190;2023-04-25T14:47:30;9.52;;;2.40;;
66012;SDS011;52783;50.502;8.190;2023-04-25T14:49:56;12.90;;;2.90;;